Time;durP1;ratioP1;P1;durP2;ratioP2;P2;SDS_P1;SDS_P2;PMS_P1;PMS_P2;Temp;Humidity;BMP_temperature;BMP_pressure;BME280_temperature;BME280_humidity;BME280_pressure;Samples;Min_cycle;Max_cycle;Signal;HPM_P1;HPM_P2
2021/07/04 00:01:40;;;;;;;18.67;12.20;;;;;;;;;;5014200;28;20333;-48
2021/07/04 00:04:06;;;;;;;19.23;12.27;;;;;;;;;;5011559;28;20056;-50
2021/07/04 00:06:33;;;;;;;20.60;11.38;;;;;;;;;;5001550;28;20045;-46
2021/07/04 00:08:59;;;;;;;28.13;12.48;;;;;;;;;;5009003;28;20053;-46
2021/07/04 00:11:25;;;;;;;24.27;12.02;;;;;;;;;;5016479;28;20129;-48
2021/07/04 00:13:52;;;;;;;19.58;11.93;;;;;;;;;;5007259;28;20156;-47
2021/07/04 00:16:18;;;;;;;20.65;11.80;;;;;;;;;;5016331;28;20058;-46
2021/07/04 00:18:45;;;;;;;19.58;12.27;;;;;;;;;;5021885;28;20697;-47
2021/07/04 00:21:11;;;;;;;20.88;12.30;;;;;;;;;;5004166;28;20049;-49
2021/07/04 00:23:38;;;;;;;19.33;12.05;;;;;;;;;;5021747;28;20159;-49
2021/07/04 00:26:05;;;;;;;22.35;11.95;;;;;;;;;;5020096;28;20115;-47
2021/07/04 00:28:31;;;;;;;20.08;13.15;;;;;;;;;;5025888;28;20089;-48
2021/07/04 00:30:58;;;;;;;20.25;12.48;;;;;;;;;;5019257;28;20655;-47
2021/07/04 00:33:24;;;;;;;22.30;12.60;;;;;;;;;;5018132;28;20061;-47
2021/07/04 00:35:51;;;;;;;21.73;13.57;;;;;;;;;;5018565;28;20152;-47
2021/07/04 00:38:17;;;;;;;20.50;12.95;;;;;;;;;;5020634;28;20140;-47
2021/07/04 00:40:44;;;;;;;28.25;13.70;;;;;;;;;;5023646;28;20132;-46
2021/07/04 00:43:11;;;;;;;21.90;12.73;;;;;;;;;;5018907;28;20148;-46
2021/07/04 00:45:37;;;;;;;24.23;12.68;;;;;;;;;;5025223;28;20089;-49
2021/07/04 00:48:04;;;;;;;19.02;12.13;;;;;;;;;;5015416;28;20169;-47
2021/07/04 00:50:31;;;;;;;19.08;11.57;;;;;;;;;;5013672;28;20065;-48
2021/07/04 00:52:58;;;;;;;20.42;12.75;;;;;;;;;;5015999;28;20049;-47
2021/07/04 00:55:25;;;;;;;18.58;11.27;;;;;;;;;;5013602;28;20137;-47
2021/07/04 00:57:52;;;;;;;19.38;11.43;;;;;;;;;;5020050;28;20137;-49
2021/07/04 01:00:19;;;;;;;23.08;11.80;;;;;;;;;;5015858;28;20132;-48
2021/07/04 01:02:46;;;;;;;17.30;10.85;;;;;;;;;;5013196;28;20745;-48
2021/07/04 01:05:13;;;;;;;19.85;11.18;;;;;;;;;;4998161;28;20173;-47
2021/07/04 01:07:40;;;;;;;19.30;10.63;;;;;;;;;;5022054;28;20080;-48
2021/07/04 01:10:07;;;;;;;15.85;10.38;;;;;;;;;;5019072;28;20187;-48
2021/07/04 01:12:34;;;;;;;17.42;10.88;;;;;;;;;;5022383;28;20132;-49
2021/07/04 01:15:02;;;;;;;17.00;10.85;;;;;;;;;;5017829;28;20136;-47
2021/07/04 01:17:30;;;;;;;19.55;10.88;;;;;;;;;;5004882;28;20592;-47
2021/07/04 01:19:56;;;;;;;;;;;;;;;;;;5025665;28;20612;-47
2021/07/04 01:22:25;;;;;;;17.92;11.35;;;;;;;;;;5016437;28;20428;-48
2021/07/04 01:24:51;;;;;;;17.73;10.63;;;;;;;;;;5019458;28;20483;-48
2021/07/04 01:27:18;;;;;;;18.15;11.32;;;;;;;;;;5014752;28;20546;-48
2021/07/04 01:29:44;;;;;;;19.50;10.35;;;;;;;;;;5008426;28;20136;-48
2021/07/04 01:32:11;;;;;;;17.48;10.88;;;;;;;;;;5018807;28;20128;-47
2021/07/04 01:34:37;;;;;;;18.15;10.38;;;;;;;;;;5019036;28;20148;-47
2021/07/04 01:37:04;;;;;;;15.82;9.93;;;;;;;;;;5024571;28;20137;-47
2021/07/04 01:39:30;;;;;;;18.88;11.35;;;;;;;;;;5015603;28;20068;-48
2021/07/04 01:41:57;;;;;;;16.10;10.05;;;;;;;;;;5012876;28;20148;-47
2021/07/04 01:44:23;;;;;;;17.88;10.88;;;;;;;;;;5017216;28;20096;-48
2021/07/04 01:46:50;;;;;;;18.50;10.45;;;;;;;;;;5011209;28;20140;-48
2021/07/04 01:49:16;;;;;;;20.27;10.20;;;;;;;;;;5006789;28;20112;-47
2021/07/04 01:51:43;;;;;;;21.10;11.23;;;;;;;;;;5022526;28;20142;-49
2021/07/04 01:54:09;;;;;;;14.45;10.07;;;;;;;;;;5018540;28;20107;-47
2021/07/04 01:56:36;;;;;;;16.73;10.23;;;;;;;;;;5019970;28;20129;-48
2021/07/04 01:59:02;;;;;;;16.52;9.55;;;;;;;;;;5023278;28;20140;-47
2021/07/04 02:01:29;;;;;;;17.55;10.32;;;;;;;;;;5016264;28;20645;-47
2021/07/04 02:03:55;;;;;;;15.50;10.20;;;;;;;;;;5023976;28;20077;-47
2021/07/04 02:06:21;;;;;;;19.25;10.35;;;;;;;;;;5014645;28;20124;-47
2021/07/04 02:08:48;;;;;;;18.40;10.75;;;;;;;;;;5010050;28;20128;-47
2021/07/04 02:11:14;;;;;;;22.27;11.30;;;;;;;;;;4999289;28;20149;-48
2021/07/04 02:13:40;;;;;;;17.63;9.95;;;;;;;;;;5012918;28;20041;-50
2021/07/04 02:16:07;;;;;;;20.52;12.07;;;;;;;;;;5023462;28;20361;-47
2021/07/04 02:18:33;;;;;;;17.20;10.85;;;;;;;;;;5017778;28;20056;-47
2021/07/04 02:21:00;;;;;;;18.70;12.18;;;;;;;;;;5020141;28;20060;-50
2021/07/04 02:23:30;;;;;;;18.95;11.13;;;;;;;;;;5000572;28;20095;-47
2021/07/04 02:25:57;;;;;;;17.85;11.52;;;;;;;;;;5022358;28;20538;-47
2021/07/04 02:28:24;;;;;;;18.75;11.57;;;;;;;;;;5018468;28;20088;-47
2021/07/04 02:30:51;;;;;;;18.38;12.52;;;;;;;;;;5022005;28;20140;-46
2021/07/04 02:33:18;;;;;;;19.92;13.45;;;;;;;;;;5019107;28;20063;-48
2021/07/04 02:35:48;;;;;;;21.25;13.68;;;;;;;;;;5017869;28;20073;-47
2021/07/04 02:38:15;;;;;;;25.95;12.80;;;;;;;;;;5022128;28;20088;-47
2021/07/04 02:40:42;;;;;;;22.67;12.60;;;;;;;;;;5018017;28;20049;-48
2021/07/04 02:43:09;;;;;;;23.67;12.57;;;;;;;;;;5023541;28;20442;-48
2021/07/04 02:45:36;;;;;;;18.42;11.85;;;;;;;;;;5018274;28;20080;-47
2021/07/04 02:48:03;;;;;;;19.60;11.85;;;;;;;;;;5020094;28;20096;-47
2021/07/04 02:50:30;;;;;;;18.17;12.57;;;;;;;;;;5006470;28;20100;-48
2021/07/04 02:52:56;;;;;;;19.10;12.30;;;;;;;;;;5003107;28;20105;-47
2021/07/04 02:55:23;;;;;;;21.17;12.27;;;;;;;;;;5006173;28;20461;-47
2021/07/04 02:57:49;;;;;;;19.08;11.38;;;;;;;;;;5023309;28;20140;-47
2021/07/04 03:00:17;;;;;;;19.83;12.85;;;;;;;;;;5022908;28;20045;-48
2021/07/04 03:02:43;;;;;;;19.87;12.47;;;;;;;;;;5012805;28;20148;-47
2021/07/04 03:05:10;;;;;;;18.83;12.27;;;;;;;;;;5018503;28;20100;-47
2021/07/04 03:07:37;;;;;;;19.77;12.45;;;;;;;;;;5017115;28;20557;-47
2021/07/04 03:10:08;;;;;;;20.50;12.55;;;;;;;;;;5022598;28;20053;-47
2021/07/04 03:12:34;;;;;;;19.88;12.25;;;;;;;;;;5014956;28;20152;-47
2021/07/04 03:15:01;;;;;;;17.92;12.50;;;;;;;;;;5016653;28;20136;-47
2021/07/04 03:17:27;;;;;;;20.58;12.60;;;;;;;;;;5012885;28;20133;-47
2021/07/04 03:19:54;;;;;;;20.52;12.90;;;;;;;;;;5005622;28;20093;-47
2021/07/04 03:22:20;;;;;;;21.13;13.52;;;;;;;;;;5021716;28;20092;-47
2021/07/04 03:24:46;;;;;;;19.63;12.40;;;;;;;;;;5016975;28;20093;-47
2021/07/04 03:27:13;;;;;;;22.40;12.43;;;;;;;;;;5022213;28;20049;-47
2021/07/04 03:29:39;;;;;;;22.70;13.05;;;;;;;;;;5014579;28;20059;-46
2021/07/04 03:32:06;;;;;;;19.88;12.45;;;;;;;;;;5015866;28;20049;-46
2021/07/04 03:34:33;;;;;;;22.23;12.63;;;;;;;;;;5002417;28;20057;-47
2021/07/04 03:37:00;;;;;;;20.77;13.07;;;;;;;;;;5016558;28;20512;-48
2021/07/04 03:39:26;;;;;;;24.88;12.65;;;;;;;;;;5022194;28;20373;-47
2021/07/04 03:41:52;;;;;;;20.77;13.55;;;;;;;;;;5016516;28;20458;-48
2021/07/04 03:44:19;;;;;;;18.67;12.13;;;;;;;;;;5006914;28;20072;-47
2021/07/04 03:46:45;;;;;;;18.50;12.00;;;;;;;;;;5014072;28;20049;-48
2021/07/04 03:49:12;;;;;;;19.83;12.13;;;;;;;;;;5022896;28;20058;-47
2021/07/04 03:51:38;;;;;;;22.17;12.73;;;;;;;;;;5013578;28;20140;-47
2021/07/04 03:54:05;;;;;;;25.40;12.77;;;;;;;;;;5015169;28;20526;-47
2021/07/04 03:56:31;;;;;;;20.25;12.23;;;;;;;;;;5010817;28;20468;-48
2021/07/04 03:58:57;;;;;;;24.33;13.52;;;;;;;;;;5014693;28;20076;-49
2021/07/04 04:01:24;;;;;;;19.02;12.38;;;;;;;;;;5021600;28;20144;-46
2021/07/04 04:03:50;;;;;;;21.08;13.23;;;;;;;;;;5016921;28;20104;-47
2021/07/04 04:06:17;;;;;;;22.45;12.98;;;;;;;;;;5023089;28;20136;-48
2021/07/04 04:08:44;;;;;;;21.77;12.80;;;;;;;;;;5015649;28;20042;-48
2021/07/04 04:11:11;;;;;;;22.38;12.82;;;;;;;;;;5019924;28;20425;-46
2021/07/04 04:13:38;;;;;;;24.67;13.70;;;;;;;;;;5008302;28;20248;-48
2021/07/04 04:16:05;;;;;;;22.42;13.65;;;;;;;;;;5025776;28;20318;-47
2021/07/04 04:18:35;;;;;;;21.70;13.20;;;;;;;;;;5025201;28;20132;-49
2021/07/04 04:21:05;;;;;;;21.17;12.68;;;;;;;;;;5019889;28;20144;-48
2021/07/04 04:23:33;;;;;;;18.63;12.32;;;;;;;;;;5023678;28;20108;-49
2021/07/04 04:25:59;;;;;;;21.70;13.02;;;;;;;;;;5003124;28;20160;-48
2021/07/04 04:28:26;;;;;;;21.70;13.35;;;;;;;;;;5012557;28;20137;-47
2021/07/04 04:30:52;;;;;;;21.98;13.77;;;;;;;;;;5010439;28;20038;-49
2021/07/04 04:33:19;;;;;;;23.33;14.45;;;;;;;;;;5018672;28;20937;-47
2021/07/04 04:35:46;;;;;;;24.50;14.88;;;;;;;;;;5020066;28;20525;-47
2021/07/04 04:38:12;;;;;;;27.08;15.75;;;;;;;;;;5010800;28;20077;-47
2021/07/04 04:40:38;;;;;;;24.25;15.13;;;;;;;;;;5006826;28;20057;-48
2021/07/04 04:43:05;;;;;;;28.13;15.65;;;;;;;;;;5016103;28;20136;-47
2021/07/04 04:45:31;;;;;;;26.50;16.83;;;;;;;;;;5009646;28;20054;-47
2021/07/04 04:47:57;;;;;;;28.15;17.50;;;;;;;;;;5006320;28;20045;-48
2021/07/04 04:50:24;;;;;;;26.77;16.63;;;;;;;;;;5019007;28;20053;-47
2021/07/04 04:52:50;;;;;;;29.40;17.27;;;;;;;;;;5008431;28;20050;-47
2021/07/04 04:55:16;;;;;;;27.27;17.55;;;;;;;;;;5003874;28;20056;-49
2021/07/04 04:57:43;;;;;;;33.03;19.48;;;;;;;;;;5012447;28;20045;-47
2021/07/04 05:00:10;;;;;;;27.40;17.52;;;;;;;;;;5007057;28;20137;-48
2021/07/04 05:02:41;;;;;;;32.78;19.35;;;;;;;;;;5025709;28;20064;-48
2021/07/04 05:05:08;;;;;;;30.50;18.47;;;;;;;;;;5018127;28;20088;-47
2021/07/04 05:07:34;;;;;;;38.25;19.40;;;;;;;;;;5018734;28;20096;-47
2021/07/04 05:10:01;;;;;;;33.03;20.35;;;;;;;;;;5018887;28;20053;-48
2021/07/04 05:12:27;;;;;;;33.92;20.17;;;;;;;;;;5024142;28;20155;-47
2021/07/04 05:14:54;;;;;;;30.83;18.60;;;;;;;;;;5018092;28;20109;-48
2021/07/04 05:17:20;;;;;;;31.80;20.83;;;;;;;;;;5016606;28;20160;-48
2021/07/04 05:19:48;;;;;;;29.50;20.35;;;;;;;;;;5002364;28;20144;-47
2021/07/04 05:22:14;;;;;;;34.40;20.83;;;;;;;;;;5012121;28;20053;-47
2021/07/04 05:24:40;;;;;;;31.30;19.00;;;;;;;;;;5025605;28;20140;-47
2021/07/04 05:27:07;;;;;;;31.02;20.88;;;;;;;;;;5017732;28;20148;-48
2021/07/04 05:29:33;;;;;;;35.00;21.20;;;;;;;;;;5025184;28;20893;-48
2021/07/04 05:31:59;;;;;;;31.67;20.90;;;;;;;;;;5017879;28;20414;-48
2021/07/04 05:34:27;;;;;;;37.45;22.73;;;;;;;;;;5019747;28;20543;-47
2021/07/04 05:36:53;;;;;;;37.65;22.65;;;;;;;;;;5009157;28;20854;-46
2021/07/04 05:39:20;;;;;;;37.70;22.50;;;;;;;;;;5019687;28;20481;-47
2021/07/04 05:41:46;;;;;;;37.05;22.40;;;;;;;;;;5024905;28;20135;-48
2021/07/04 05:44:12;;;;;;;37.85;24.08;;;;;;;;;;5018286;28;20584;-48
2021/07/04 05:46:39;;;;;;;38.15;23.45;;;;;;;;;;5020396;28;20777;-47
2021/07/04 05:49:05;;;;;;;45.97;25.42;;;;;;;;;;5005510;28;20045;-48
2021/07/04 05:51:32;;;;;;;51.13;28.67;;;;;;;;;;5020718;28;20049;-49
2021/07/04 05:53:58;;;;;;;43.58;26.52;;;;;;;;;;5025030;28;20136;-48
2021/07/04 05:56:25;;;;;;;50.88;28.17;;;;;;;;;;5005145;28;20562;-49
2021/07/04 05:58:51;;;;;;;51.90;29.35;;;;;;;;;;5023601;28;20115;-49
2021/07/04 06:01:18;;;;;;;49.38;27.65;;;;;;;;;;5016439;28;20140;-47
2021/07/04 06:03:44;;;;;;;53.60;29.55;;;;;;;;;;5009938;28;20050;-47
2021/07/04 06:06:11;;;;;;;57.67;31.80;;;;;;;;;;5009870;28;20671;-47
2021/07/04 06:08:37;;;;;;;68.72;33.40;;;;;;;;;;5019853;28;20137;-48
2021/07/04 06:11:03;;;;;;;57.97;31.85;;;;;;;;;;5015973;28;20084;-47
2021/07/04 06:13:30;;;;;;;59.95;30.40;;;;;;;;;;5015455;28;20060;-47
2021/07/04 06:15:56;;;;;;;61.92;31.30;;;;;;;;;;5019375;28;20049;-47
2021/07/04 06:18:24;;;;;;;61.92;32.65;;;;;;;;;;5002957;28;20119;-47
2021/07/04 06:20:51;;;;;;;56.92;31.70;;;;;;;;;;5022098;28;20224;-48
2021/07/04 06:23:17;;;;;;;57.10;31.83;;;;;;;;;;5015352;28;20157;-49
2021/07/04 06:25:44;;;;;;;61.17;33.60;;;;;;;;;;5007731;28;20057;-47
2021/07/04 06:28:10;;;;;;;62.90;33.38;;;;;;;;;;5017326;28;20152;-48
2021/07/04 06:30:36;;;;;;;66.63;35.33;;;;;;;;;;5015005;28;20239;-47
2021/07/04 06:33:03;;;;;;;65.85;34.90;;;;;;;;;;5018033;28;20548;-50
2021/07/04 06:35:29;;;;;;;67.60;35.10;;;;;;;;;;5016441;28;20144;-48
2021/07/04 06:37:56;;;;;;;84.53;38.67;;;;;;;;;;5010723;28;20057;-48
2021/07/04 06:40:22;;;;;;;74.10;36.92;;;;;;;;;;5016850;28;20046;-52
2021/07/04 06:42:49;;;;;;;78.50;38.78;;;;;;;;;;5022345;28;20545;-50
2021/07/04 06:45:15;;;;;;;82.72;38.58;;;;;;;;;;5014121;28;20557;-47
2021/07/04 06:47:44;;;;;;;77.28;36.88;;;;;;;;;;5017805;28;20120;-48
2021/07/04 06:50:11;;;;;;;78.78;39.17;;;;;;;;;;5011260;28;20050;-48
2021/07/04 06:52:38;;;;;;;78.32;38.22;;;;;;;;;;5008034;28;20085;-47
2021/07/04 06:55:06;;;;;;;86.82;40.22;;;;;;;;;;5022085;28;20100;-49
2021/07/04 06:57:33;;;;;;;73.82;37.15;;;;;;;;;;5003674;28;20123;-47
2021/07/04 07:00:10;;;;;;;77.78;38.40;;;;;;;;;;5008396;28;20076;-50
2021/07/04 07:02:36;;;;;;;77.93;36.83;;;;;;;;;;5011078;28;20164;-50
2021/07/04 07:05:05;;;;;;;71.53;37.50;;;;;;;;;;5020045;28;20057;-49
2021/07/04 07:07:32;;;;;;;85.03;40.58;;;;;;;;;;5015269;28;20768;-49
2021/07/04 07:09:58;;;;;;;83.35;38.53;;;;;;;;;;5018860;28;20160;-49
2021/07/04 07:12:25;;;;;;;82.18;38.40;;;;;;;;;;5009132;28;20140;-49
2021/07/04 07:14:55;;;;;;;72.95;36.40;;;;;;;;;;5021552;28;20042;-47
2021/07/04 07:17:22;;;;;;;80.70;39.00;;;;;;;;;;5022542;28;20081;-51
2021/07/04 07:19:48;;;;;;;96.85;42.25;;;;;;;;;;5017272;28;20128;-48
2021/07/04 07:22:14;;;;;;;92.45;41.80;;;;;;;;;;5017211;28;20183;-51
2021/07/04 07:24:41;;;;;;;98.75;44.67;;;;;;;;;;5012694;28;20491;-48
2021/07/04 07:27:07;;;;;;;96.60;45.88;;;;;;;;;;5014323;28;20223;-47
2021/07/04 07:29:33;;;;;;;100.47;46.55;;;;;;;;;;5016550;28;20136;-48
2021/07/04 07:32:00;;;;;;;88.65;44.40;;;;;;;;;;5021697;28;20060;-49
2021/07/04 07:34:26;;;;;;;99.63;46.35;;;;;;;;;;5018612;28;20083;-49
2021/07/04 07:36:53;;;;;;;95.03;45.63;;;;;;;;;;5008986;28;20046;-48
2021/07/04 07:39:19;;;;;;;92.50;44.45;;;;;;;;;;5006631;28;20077;-48
2021/07/04 07:41:45;;;;;;;100.50;46.08;;;;;;;;;;5003673;28;20512;-48
2021/07/04 07:44:15;;;;;;;93.00;43.28;;;;;;;;;;5020797;28;20124;-49
2021/07/04 07:46:41;;;;;;;107.22;47.05;;;;;;;;;;5016388;28;20164;-48
2021/07/04 07:49:08;;;;;;;96.07;45.35;;;;;;;;;;5023794;28;20057;-48
2021/07/04 07:51:35;;;;;;;94.35;46.25;;;;;;;;;;5014508;28;20491;-49
2021/07/04 07:54:03;;;;;;;96.70;46.90;;;;;;;;;;5013291;28;20084;-47
2021/07/04 07:56:29;;;;;;;91.13;44.00;;;;;;;;;;5022738;28;20091;-49
2021/07/04 07:58:56;;;;;;;98.30;46.17;;;;;;;;;;5006810;28;20140;-50
2021/07/04 08:01:22;;;;;;;88.05;43.22;;;;;;;;;;5023133;28;20137;-48
2021/07/04 08:03:49;;;;;;;92.05;45.03;;;;;;;;;;5014568;28;20045;-50
2021/07/04 08:06:15;;;;;;;93.80;43.53;;;;;;;;;;5018595;28;20088;-48
2021/07/04 08:08:41;;;;;;;87.32;41.47;;;;;;;;;;5012381;28;20539;-51
2021/07/04 08:11:08;;;;;;;83.30;43.33;;;;;;;;;;5023347;28;20660;-48
2021/07/04 08:13:34;;;;;;;82.97;41.20;;;;;;;;;;5012980;28;20049;-50
2021/07/04 08:16:01;;;;;;;82.65;41.17;;;;;;;;;;5004341;28;20041;-49
2021/07/04 08:18:28;;;;;;;79.72;39.17;;;;;;;;;;5006133;28;20046;-49
2021/07/04 08:20:54;;;;;;;84.85;43.13;;;;;;;;;;5006860;28;20038;-50
2021/07/04 08:23:21;;;;;;;82.13;42.28;;;;;;;;;;5020370;28;20143;-51
2021/07/04 08:25:48;;;;;;;84.32;40.22;;;;;;;;;;5005587;28;20136;-48
2021/07/04 08:28:17;;;;;;;77.78;40.33;;;;;;;;;;5021330;28;20045;-48
2021/07/04 08:30:44;;;;;;;90.60;44.03;;;;;;;;;;5006217;28;20138;-47
2021/07/04 08:33:11;;;;;;;84.40;41.37;;;;;;;;;;5004850;28;20291;-47
2021/07/04 08:35:37;;;;;;;78.82;41.20;;;;;;;;;;5015592;28;20057;-47
2021/07/04 08:38:04;;;;;;;87.80;43.38;;;;;;;;;;5010437;28;20076;-48
2021/07/04 08:40:31;;;;;;;86.07;42.58;;;;;;;;;;5017522;28;20085;-49
2021/07/04 08:42:57;;;;;;;83.38;41.63;;;;;;;;;;5014010;28;20057;-49
2021/07/04 08:45:23;;;;;;;86.28;43.40;;;;;;;;;;5012040;28;20049;-49
2021/07/04 08:47:50;;;;;;;79.38;42.42;;;;;;;;;;5013231;28;20084;-49
2021/07/04 08:50:19;;;;;;;89.90;42.03;;;;;;;;;;5018137;28;20556;-50
2021/07/04 08:52:45;;;;;;;77.30;40.58;;;;;;;;;;5023655;28;20131;-48
2021/07/04 08:55:11;;;;;;;81.75;41.55;;;;;;;;;;5002098;28;20056;-48
2021/07/04 08:57:38;;;;;;;81.55;41.15;;;;;;;;;;5023859;28;20065;-49
2021/07/04 09:00:06;;;;;;;74.13;38.88;;;;;;;;;;5015130;28;20536;-49
2021/07/04 09:02:34;;;;;;;71.43;38.42;;;;;;;;;;5017762;28;20140;-47
2021/07/04 09:05:04;;;;;;;74.78;38.95;;;;;;;;;;5010055;28;20045;-48
2021/07/04 09:07:31;;;;;;;76.40;40.08;;;;;;;;;;5024089;28;20752;-48
2021/07/04 09:09:59;;;;;;;73.43;39.80;;;;;;;;;;5020431;28;20077;-49
2021/07/04 09:12:34;;;;;;;70.20;38.45;;;;;;;;;;5009336;28;20049;-48
2021/07/04 09:15:06;;;;;;;72.13;37.67;;;;;;;;;;5007983;28;20160;-49
2021/07/04 09:17:36;;;;;;;68.40;35.70;;;;;;;;;;5013712;28;20132;-50
2021/07/04 09:20:06;;;;;;;71.25;38.42;;;;;;;;;;5017371;28;20053;-49
2021/07/04 09:22:35;;;;;;;67.13;36.55;;;;;;;;;;5017214;28;20892;-48
2021/07/04 09:25:17;;;;;;;72.45;37.88;;;;;;;;;;5020738;28;20137;-48
2021/07/04 09:28:00;;;;;;;72.00;36.33;;;;;;;;;;5010800;28;20149;-48
2021/07/04 09:30:31;;;;;;;70.80;36.88;;;;;;;;;;5016973;28;20145;-49
2021/07/04 09:32:57;;;;;;;69.28;35.45;;;;;;;;;;5015340;28;20144;-48
2021/07/04 09:35:23;;;;;;;65.03;35.97;;;;;;;;;;5010535;28;20661;-50
2021/07/04 09:37:52;;;;;;;62.20;35.17;;;;;;;;;;5017556;28;20357;-49
2021/07/04 09:40:24;;;;;;;67.57;36.97;;;;;;;;;;5014461;28;20049;-49
2021/07/04 09:43:05;;;;;;;69.68;35.22;;;;;;;;;;5006775;28;20054;-47
2021/07/04 09:45:49;;;;;;;64.07;35.30;;;;;;;;;;5013378;28;20049;-49
2021/07/04 09:48:20;;;;;;;61.85;35.10;;;;;;;;;;5022852;28;20144;-50
2021/07/04 09:50:49;;;;;;;64.40;34.13;;;;;;;;;;5017342;28;20045;-50
2021/07/04 09:53:16;;;;;;;62.17;34.78;;;;;;;;;;5019313;28;20564;-50
2021/07/04 09:55:43;;;;;;;61.05;33.05;;;;;;;;;;5007245;28;20140;-49
2021/07/04 09:58:10;;;;;;;60.22;33.55;;;;;;;;;;5015344;28;20674;-49
2021/07/04 10:00:38;;;;;;;58.35;33.38;;;;;;;;;;5010645;28;20049;-49
2021/07/04 10:03:18;;;;;;;53.42;31.20;;;;;;;;;;5020085;28;20155;-50
2021/07/04 10:05:50;;;;;;;55.67;32.28;;;;;;;;;;5015900;28;20140;-50
2021/07/04 10:08:35;;;;;;;57.92;33.03;;;;;;;;;;5009111;28;20523;-52
2021/07/04 10:11:03;;;;;;;58.72;32.72;;;;;;;;;;5015229;28;20060;-52
2021/07/04 10:13:30;;;;;;;58.53;32.97;;;;;;;;;;5006069;28;20050;-49
2021/07/04 10:15:57;;;;;;;54.72;32.25;;;;;;;;;;5005680;28;20724;-50
2021/07/04 10:18:24;;;;;;;59.93;34.60;;;;;;;;;;5009724;28;20061;-50
2021/07/04 10:20:51;;;;;;;51.47;30.83;;;;;;;;;;5015924;28;20156;-52
2021/07/04 10:23:20;;;;;;;58.50;33.07;;;;;;;;;;5015938;28;20132;-49
2021/07/04 10:25:47;;;;;;;51.55;30.92;;;;;;;;;;5017415;28;20793;-49
2021/07/04 10:28:15;;;;;;;48.53;28.80;;;;;;;;;;5017997;28;20136;-48
2021/07/04 10:30:41;;;;;;;50.15;30.70;;;;;;;;;;5000847;28;20385;-50
2021/07/04 10:33:21;;;;;;;55.40;32.25;;;;;;;;;;5016044;28;20060;-52
2021/07/04 10:36:07;;;;;;;48.90;30.52;;;;;;;;;;5015722;28;20099;-51
2021/07/04 10:38:44;;;;;;;48.65;30.27;;;;;;;;;;5018926;28;20045;-53
2021/07/04 10:41:17;;;;;;;43.55;27.30;;;;;;;;;;5002731;28;20539;-50
2021/07/04 10:43:48;;;;;;;50.08;30.23;;;;;;;;;;5018247;28;20058;-51
2021/07/04 10:46:14;;;;;;;48.45;28.42;;;;;;;;;;5011563;28;20050;-52
2021/07/04 10:48:56;;;;;;;48.55;29.40;;;;;;;;;;5019141;28;20065;-51
2021/07/04 10:51:23;;;;;;;47.42;29.13;;;;;;;;;;5003087;28;20087;-50
2021/07/04 10:53:51;;;;;;;49.35;27.73;;;;;;;;;;5009720;28;20507;-50
2021/07/04 10:56:17;;;;;;;;;;;;;;;;;;5013454;28;20826;-52
2021/07/04 10:59:04;;;;;;;44.65;27.45;;;;;;;;;;5012775;28;19994;-50
2021/07/04 11:01:46;;;;;;;44.75;29.00;;;;;;;;;;5018572;28;20145;-50
2021/07/04 11:04:28;;;;;;;44.00;27.55;;;;;;;;;;5015254;28;20049;-49
2021/07/04 11:06:55;;;;;;;46.25;27.77;;;;;;;;;;4999502;28;20045;-51
2021/07/04 11:09:22;;;;;;;42.88;27.65;;;;;;;;;;5013232;28;20136;-51
2021/07/04 11:11:48;;;;;;;47.75;27.30;;;;;;;;;;5020410;28;20156;-50
2021/07/04 11:14:15;;;;;;;41.33;27.45;;;;;;;;;;5009847;28;20053;-49
2021/07/04 11:17:00;;;;;;;42.22;26.50;;;;;;;;;;5008765;28;20141;-50
2021/07/04 11:19:27;;;;;;;42.03;27.27;;;;;;;;;;5001280;28;20103;-50
2021/07/04 11:21:56;;;;;;;38.63;24.90;;;;;;;;;;5000365;28;20053;-51
2021/07/04 11:24:27;;;;;;;36.38;23.75;;;;;;;;;;5002746;28;20070;-48
2021/07/04 11:27:12;;;;;;;37.47;23.42;;;;;;;;;;4996562;28;20228;-51
2021/07/04 11:29:38;;;;;;;36.00;23.48;;;;;;;;;;5011197;28;20057;-50
2021/07/04 11:32:21;;;;;;;36.22;23.30;;;;;;;;;;4998462;28;20696;-52
2021/07/04 11:34:48;;;;;;;35.13;22.17;;;;;;;;;;5001356;28;20812;-50
2021/07/04 11:37:14;;;;;;;35.92;21.52;;;;;;;;;;4996825;28;20470;-49
2021/07/04 11:39:41;;;;;;;34.33;24.15;;;;;;;;;;5009835;28;20046;-49
2021/07/04 11:42:07;;;;;;;40.67;25.75;;;;;;;;;;5006514;28;21765;-49
2021/07/04 11:44:33;;;;;;;39.20;25.40;;;;;;;;;;5017735;28;20499;-49
2021/07/04 11:47:00;;;;;;;41.80;25.38;;;;;;;;;;5016865;28;20493;-50
2021/07/04 11:49:27;;;;;;;33.05;21.42;;;;;;;;;;5013750;28;20115;-50
2021/07/04 11:51:54;;;;;;;34.27;23.20;;;;;;;;;;5019812;28;20132;-49
2021/07/04 11:54:26;;;;;;;31.15;21.17;;;;;;;;;;5015854;28;20140;-49
2021/07/04 11:56:55;;;;;;;30.80;19.83;;;;;;;;;;5007429;28;20061;-50
2021/07/04 11:59:22;;;;;;;33.63;19.15;;;;;;;;;;5014934;28;20148;-50
2021/07/04 12:01:55;;;;;;;28.67;19.05;;;;;;;;;;5014662;28;20782;-50
2021/07/04 12:04:28;;;;;;;26.63;17.55;;;;;;;;;;5013451;28;20493;-50
2021/07/04 12:06:56;;;;;;;32.25;20.27;;;;;;;;;;5019360;28;20056;-51
2021/07/04 12:09:22;;;;;;;;;;;;;;;;;;5021663;28;20045;-50
2021/07/04 12:11:52;;;;;;;27.70;15.98;;;;;;;;;;5014052;28;19925;-50
2021/07/04 12:14:35;;;;;;;20.40;14.77;;;;;;;;;;5010266;28;20149;-50
2021/07/04 12:17:15;;;;;;;22.38;13.93;;;;;;;;;;5010249;28;20141;-51
2021/07/04 12:19:42;;;;;;;16.50;11.73;;;;;;;;;;5021598;28;20053;-49
2021/07/04 12:22:10;;;;;;;22.10;13.80;;;;;;;;;;5013253;28;20706;-49
2021/07/04 12:24:37;;;;;;;;;;;;;;;;;;5021816;28;20155;-50
2021/07/04 12:27:04;;;;;;;19.77;13.68;;;;;;;;;;5014107;28;20729;-50
2021/07/04 12:29:30;;;;;;;19.33;11.38;;;;;;;;;;5017673;28;20136;-49
2021/07/04 12:32:00;;;;;;;21.95;12.90;;;;;;;;;;5004724;28;20141;-49
2021/07/04 12:34:27;;;;;;;21.30;14.20;;;;;;;;;;5020124;28;20107;-50
2021/07/04 12:36:54;;;;;;;19.77;12.93;;;;;;;;;;5014614;28;20136;-49
2021/07/04 12:39:27;;;;;;;19.67;13.85;;;;;;;;;;5016623;28;20461;-50
2021/07/04 12:41:54;;;;;;;22.50;14.43;;;;;;;;;;5020661;28;20142;-50
2021/07/04 12:44:21;;;;;;;23.42;14.68;;;;;;;;;;5011157;28;20042;-49
2021/07/04 12:46:47;;;;;;;31.38;20.33;;;;;;;;;;5023219;28;20152;-49
2021/07/04 12:49:14;;;;;;;25.73;16.08;;;;;;;;;;5016679;28;20061;-51
2021/07/04 12:51:43;;;;;;;19.57;13.53;;;;;;;;;;5022016;28;20044;-49
2021/07/04 12:54:17;;;;;;;19.95;12.95;;;;;;;;;;5014225;28;20133;-50
2021/07/04 12:56:45;;;;;;;18.45;13.00;;;;;;;;;;5006781;28;20148;-52
2021/07/04 12:59:11;;;;;;;20.13;13.43;;;;;;;;;;5010298;28;20128;-49
2021/07/04 13:01:39;;;;;;;20.77;13.83;;;;;;;;;;5011655;28;20088;-49
2021/07/04 13:04:06;;;;;;;22.25;14.20;;;;;;;;;;5016680;28;20152;-49
2021/07/04 13:06:52;;;;;;;20.45;12.52;;;;;;;;;;5011384;28;20140;-50
2021/07/04 13:09:24;;;;;;;15.85;11.13;;;;;;;;;;5022455;28;20049;-49
2021/07/04 13:11:58;;;;;;;20.55;11.68;;;;;;;;;;5008563;28;20309;-49
2021/07/04 13:14:33;;;;;;;19.50;12.32;;;;;;;;;;5017916;28;20085;-50
2021/07/04 13:16:59;;;;;;;17.02;10.90;;;;;;;;;;5008882;28;20079;-50
2021/07/04 13:19:27;;;;;;;17.77;11.15;;;;;;;;;;5020791;28;20057;-49
2021/07/04 13:21:54;;;;;;;15.80;10.65;;;;;;;;;;5022495;28;20050;-49
2021/07/04 13:24:28;;;;;;;17.73;10.90;;;;;;;;;;5014754;28;20057;-48
2021/07/04 13:26:56;;;;;;;15.13;10.20;;;;;;;;;;5014656;28;20073;-50
2021/07/04 13:29:27;;;;;;;15.82;9.95;;;;;;;;;;5014996;28;20054;-49
2021/07/04 13:32:06;;;;;;;13.60;10.05;;;;;;;;;;5015548;28;20054;-49
2021/07/04 13:34:32;;;;;;;15.50;9.77;;;;;;;;;;5009699;28;20132;-49
2021/07/04 13:36:59;;;;;;;16.10;10.13;;;;;;;;;;5021083;28;20132;-49
2021/07/04 13:39:25;;;;;;;18.23;10.02;;;;;;;;;;5009850;28;20132;-48
2021/07/04 13:41:51;;;;;;;15.13;9.50;;;;;;;;;;5012563;28;20050;-48
2021/07/04 13:44:18;;;;;;;14.82;9.38;;;;;;;;;;5018544;28;20565;-48
2021/07/04 13:46:44;;;;;;;14.55;9.65;;;;;;;;;;5006142;28;20144;-49
2021/07/04 13:49:11;;;;;;;14.52;9.93;;;;;;;;;;5025744;28;20061;-49
2021/07/04 13:51:37;;;;;;;13.50;10.00;;;;;;;;;;5014887;28;20072;-48
2021/07/04 13:54:03;;;;;;;16.05;10.50;;;;;;;;;;5009088;28;20053;-48
2021/07/04 13:56:30;;;;;;;16.42;10.75;;;;;;;;;;5017683;28;20620;-49
2021/07/04 13:58:56;;;;;;;16.30;11.02;;;;;;;;;;5016064;28;20049;-49
2021/07/04 14:01:25;;;;;;;16.20;10.90;;;;;;;;;;5018048;28;20057;-48
2021/07/04 14:03:51;;;;;;;14.75;10.25;;;;;;;;;;4998882;28;20049;-49
2021/07/04 14:06:18;;;;;;;15.70;11.32;;;;;;;;;;5002363;28;20056;-49
2021/07/04 14:08:44;;;;;;;15.88;10.60;;;;;;;;;;5009352;28;20046;-49
2021/07/04 14:11:11;;;;;;;16.02;11.13;;;;;;;;;;5015314;28;20136;-47
2021/07/04 14:13:37;;;;;;;16.15;10.55;;;;;;;;;;5015376;28;20140;-46
2021/07/04 14:16:04;;;;;;;23.80;13.75;;;;;;;;;;5012347;28;20068;-47
2021/07/04 14:18:30;;;;;;;21.27;13.55;;;;;;;;;;5019273;28;20570;-48
2021/07/04 14:20:57;;;;;;;19.73;13.45;;;;;;;;;;5020785;28;20642;-48
2021/07/04 14:23:23;;;;;;;21.95;13.77;;;;;;;;;;5021162;28;20136;-48